sensor_id;sensor_type;location;lat;lon;timestamp;pressure;altitude;pressure_sealevel;temperature;humidity
10958;BME280;5531;42.570;23.676;2022-12-07T00:00:07;91969.03;;;2.81;100.00
10958;BME280;5531;42.570;23.676;2022-12-07T00:02:39;91976.31;;;2.86;100.00
10958;BME280;5531;42.570;23.676;2022-12-07T00:05:08;91968.41;;;2.87;100.00
10958;BME280;5531;42.570;23.676;2022-12-07T00:07:37;91960.16;;;2.84;100.00
10958;BME280;5531;42.570;23.676;2022-12-07T00:10:07;91971.00;;;2.87;100.00
10958;BME280;5531;42.570;23.676;2022-12-07T00:12:36;91960.66;;;2.87;100.00
10958;BME280;5531;42.570;23.676;2022-12-07T00:15:06;91960.00;;;2.85;100.00
10958;BME280;5531;42.570;23.676;2022-12-07T00:17:38;91963.09;;;2.89;100.00
10958;BME280;5531;42.570;23.676;2022-12-07T00:20:08;91963.53;;;2.84;100.00
10958;BME280;5531;42.570;23.676;2022-12-07T00:22:37;91955.97;;;2.91;100.00
10958;BME280;5531;42.570;23.676;2022-12-07T00:25:06;91962.25;;;2.88;100.00
10958;BME280;5531;42.570;23.676;2022-12-07T00:27:35;91962.78;;;2.92;100.00
10958;BME280;5531;42.570;23.676;2022-12-07T00:30:07;91964.66;;;2.82;100.00
10958;BME280;5531;42.570;23.676;2022-12-07T00:32:39;91971.16;;;2.86;100.00
10958;BME280;5531;42.570;23.676;2022-12-07T00:35:08;91964.84;;;2.88;100.00
10958;BME280;5531;42.570;23.676;2022-12-07T00:37:37;91955.47;;;2.87;100.00
10958;BME280;5531;42.570;23.676;2022-12-07T00:40:07;91959.53;;;2.90;100.00
10958;BME280;5531;42.570;23.676;2022-12-07T00:42:36;91956.63;;;2.93;100.00
10958;BME280;5531;42.570;23.676;2022-12-07T00:45:07;91963.75;;;2.91;100.00
10958;BME280;5531;42.570;23.676;2022-12-07T00:47:38;91958.41;;;2.92;100.00
10958;BME280;5531;42.570;23.676;2022-12-07T00:50:08;91964.53;;;2.91;100.00
10958;BME280;5531;42.570;23.676;2022-12-07T00:52:37;91967.81;;;2.93;100.00
10958;BME280;5531;42.570;23.676;2022-12-07T00:55:09;91962.50;;;2.95;100.00
10958;BME280;5531;42.570;23.676;2022-12-07T00:57:38;91966.53;;;2.98;100.00
10958;BME280;5531;42.570;23.676;2022-12-07T01:00:08;91953.44;;;2.99;100.00
10958;BME280;5531;42.570;23.676;2022-12-07T01:02:40;91958.78;;;2.98;100.00
10958;BME280;5531;42.570;23.676;2022-12-07T01:05:09;91961.50;;;2.96;100.00
10958;BME280;5531;42.570;23.676;2022-12-07T01:07:38;91951.00;;;2.98;100.00
10958;BME280;5531;42.570;23.676;2022-12-07T01:10:07;91952.28;;;2.93;100.00
10958;BME280;5531;42.570;23.676;2022-12-07T01:12:36;91957.63;;;2.92;100.00
10958;BME280;5531;42.570;23.676;2022-12-07T01:15:08;91963.28;;;2.96;100.00
10958;BME280;5531;42.570;23.676;2022-12-07T01:17:39;91947.63;;;2.97;100.00
10958;BME280;5531;42.570;23.676;2022-12-07T01:20:09;91947.47;;;2.99;100.00
10958;BME280;5531;42.570;23.676;2022-12-07T01:22:40;91940.81;;;2.96;100.00
10958;BME280;5531;42.570;23.676;2022-12-07T01:25:11;91943.09;;;2.99;100.00
10958;BME280;5531;42.570;23.676;2022-12-07T01:27:40;91948.28;;;2.99;100.00
10958;BME280;5531;42.570;23.676;2022-12-07T01:30:11;91931.94;;;2.99;100.00
10958;BME280;5531;42.570;23.676;2022-12-07T01:32:43;91933.88;;;2.97;100.00
10958;BME280;5531;42.570;23.676;2022-12-07T01:35:12;91926.63;;;3.00;100.00
10958;BME280;5531;42.570;23.676;2022-12-07T01:37:41;91931.28;;;2.97;100.00
10958;BME280;5531;42.570;23.676;2022-12-07T01:40:11;91926.13;;;2.97;100.00
10958;BME280;5531;42.570;23.676;2022-12-07T01:42:40;91920.09;;;2.96;100.00
10958;BME280;5531;42.570;23.676;2022-12-07T01:45:39;91924.34;;;2.97;100.00
10958;BME280;5531;42.570;23.676;2022-12-07T01:48:13;91924.97;;;2.99;100.00
10958;BME280;5531;42.570;23.676;2022-12-07T01:50:45;91930.59;;;2.94;100.00
10958;BME280;5531;42.570;23.676;2022-12-07T01:53:17;91930.00;;;3.01;100.00
10958;BME280;5531;42.570;23.676;2022-12-07T01:55:49;91928.84;;;2.95;100.00
10958;BME280;5531;42.570;23.676;2022-12-07T01:58:20;91921.78;;;3.05;100.00
10958;BME280;5531;42.570;23.676;2022-12-07T02:00:50;91927.25;;;3.02;100.00
10958;BME280;5531;42.570;23.676;2022-12-07T02:03:25;91938.13;;;3.06;100.00
10958;BME280;5531;42.570;23.676;2022-12-07T02:05:56;91935.06;;;3.10;100.00
10958;BME280;5531;42.570;23.676;2022-12-07T02:08:26;91935.88;;;3.11;100.00
10958;BME280;5531;42.570;23.676;2022-12-07T02:10:55;91925.22;;;3.14;100.00
10958;BME280;5531;42.570;23.676;2022-12-07T02:13:26;91926.34;;;3.11;100.00
10958;BME280;5531;42.570;23.676;2022-12-07T02:16:10;91930.03;;;3.09;100.00
10958;BME280;5531;42.570;23.676;2022-12-07T02:18:53;91916.75;;;3.04;100.00
10958;BME280;5531;42.570;23.676;2022-12-07T02:21:31;91916.25;;;3.00;100.00
10958;BME280;5531;42.570;23.676;2022-12-07T02:24:23;91915.97;;;3.03;100.00
10958;BME280;5531;42.570;23.676;2022-12-07T02:29:51;91903.31;;;3.00;100.00
10958;BME280;5531;42.570;23.676;2022-12-07T02:32:27;91908.66;;;2.99;100.00
10958;BME280;5531;42.570;23.676;2022-12-07T02:35:03;91909.75;;;2.96;100.00
10958;BME280;5531;42.570;23.676;2022-12-07T02:37:37;91910.59;;;2.97;100.00
10958;BME280;5531;42.570;23.676;2022-12-07T02:40:12;91908.81;;;2.97;100.00
10958;BME280;5531;42.570;23.676;2022-12-07T02:42:47;91908.00;;;2.97;100.00
10958;BME280;5531;42.570;23.676;2022-12-07T02:45:22;91905.22;;;2.98;100.00
10958;BME280;5531;42.570;23.676;2022-12-07T02:47:58;91896.88;;;3.04;100.00
10958;BME280;5531;42.570;23.676;2022-12-07T02:50:28;91899.59;;;3.03;100.00
10958;BME280;5531;42.570;23.676;2022-12-07T02:52:57;91906.06;;;2.99;100.00
10958;BME280;5531;42.570;23.676;2022-12-07T02:55:29;91905.56;;;2.95;100.00
10958;BME280;5531;42.570;23.676;2022-12-07T02:58:20;91906.69;;;2.92;100.00
10958;BME280;5531;42.570;23.676;2022-12-07T03:01:03;91897.13;;;2.93;100.00
10958;BME280;5531;42.570;23.676;2022-12-07T03:03:35;91907.94;;;2.88;100.00
10958;BME280;5531;42.570;23.676;2022-12-07T03:06:15;91903.13;;;2.93;100.00
10958;BME280;5531;42.570;23.676;2022-12-07T03:08:51;91913.63;;;2.92;100.00
10958;BME280;5531;42.570;23.676;2022-12-07T03:11:31;91911.34;;;2.89;100.00
10958;BME280;5531;42.570;23.676;2022-12-07T03:14:08;91906.69;;;2.92;100.00
10958;BME280;5531;42.570;23.676;2022-12-07T03:16:46;91904.72;;;2.94;100.00
10958;BME280;5531;42.570;23.676;2022-12-07T03:19:21;91897.47;;;2.98;100.00
10958;BME280;5531;42.570;23.676;2022-12-07T03:21:55;91903.44;;;2.90;100.00
10958;BME280;5531;42.570;23.676;2022-12-07T03:24:27;91894.84;;;2.90;100.00
10958;BME280;5531;42.570;23.676;2022-12-07T03:27:03;91898.41;;;2.89;100.00
10958;BME280;5531;42.570;23.676;2022-12-07T03:29:37;91892.59;;;2.87;100.00
10958;BME280;5531;42.570;23.676;2022-12-07T03:32:15;91897.09;;;2.85;100.00
10958;BME280;5531;42.570;23.676;2022-12-07T03:34:48;91898.41;;;2.89;100.00
10958;BME280;5531;42.570;23.676;2022-12-07T03:37:25;91892.06;;;2.83;100.00
10958;BME280;5531;42.570;23.676;2022-12-07T03:40:03;91893.84;;;2.83;100.00
10958;BME280;5531;42.570;23.676;2022-12-07T03:42:36;91893.69;;;2.84;100.00
10958;BME280;5531;42.570;23.676;2022-12-07T03:45:06;91887.56;;;2.85;100.00
10958;BME280;5531;42.570;23.676;2022-12-07T03:47:44;91881.59;;;2.93;100.00
10958;BME280;5531;42.570;23.676;2022-12-07T03:50:21;91889.50;;;2.91;100.00
10958;BME280;5531;42.570;23.676;2022-12-07T03:52:56;91877.25;;;2.93;100.00
10958;BME280;5531;42.570;23.676;2022-12-07T03:55:29;91878.72;;;2.96;100.00
10958;BME280;5531;42.570;23.676;2022-12-07T03:58:01;91878.22;;;2.92;100.00
10958;BME280;5531;42.570;23.676;2022-12-07T04:00:32;91883.69;;;2.89;100.00
10958;BME280;5531;42.570;23.676;2022-12-07T04:03:04;91875.94;;;2.89;100.00
10958;BME280;5531;42.570;23.676;2022-12-07T04:05:33;91881.41;;;2.86;100.00
10958;BME280;5531;42.570;23.676;2022-12-07T04:08:02;91866.88;;;2.85;100.00
10958;BME280;5531;42.570;23.676;2022-12-07T04:10:31;91870.09;;;2.87;100.00
10958;BME280;5531;42.570;23.676;2022-12-07T04:13:00;91876.88;;;2.88;100.00
10958;BME280;5531;42.570;23.676;2022-12-07T04:15:29;91877.56;;;2.90;100.00
10958;BME280;5531;42.570;23.676;2022-12-07T04:17:58;91874.63;;;2.85;100.00
10958;BME280;5531;42.570;23.676;2022-12-07T04:20:30;91874.63;;;2.85;100.00
10958;BME280;5531;42.570;23.676;2022-12-07T04:22:59;91876.69;;;2.82;100.00
10958;BME280;5531;42.570;23.676;2022-12-07T04:25:28;91870.38;;;2.76;100.00
10958;BME280;5531;42.570;23.676;2022-12-07T04:27:57;91879.09;;;2.75;100.00
10958;BME280;5531;42.570;23.676;2022-12-07T04:30:26;91881.53;;;2.77;100.00
10958;BME280;5531;42.570;23.676;2022-12-07T04:32:55;91878.28;;;2.74;100.00
10958;BME280;5531;42.570;23.676;2022-12-07T04:35:24;91872.59;;;2.71;100.00
10958;BME280;5531;42.570;23.676;2022-12-07T04:37:56;91881.97;;;2.72;100.00
10958;BME280;5531;42.570;23.676;2022-12-07T04:40:25;91885.53;;;2.71;100.00
10958;BME280;5531;42.570;23.676;2022-12-07T04:42:54;91876.94;;;2.70;100.00
10958;BME280;5531;42.570;23.676;2022-12-07T04:45:23;91880.81;;;2.66;100.00
10958;BME280;5531;42.570;23.676;2022-12-07T04:47:52;91879.88;;;2.67;100.00
10958;BME280;5531;42.570;23.676;2022-12-07T04:50:21;91884.22;;;2.67;100.00
10958;BME280;5531;42.570;23.676;2022-12-07T04:52:50;91878.38;;;2.65;100.00
10958;BME280;5531;42.570;23.676;2022-12-07T04:55:22;91895.06;;;2.70;100.00
10958;BME280;5531;42.570;23.676;2022-12-07T04:57:51;91894.69;;;2.65;100.00
10958;BME280;5531;42.570;23.676;2022-12-07T05:00:20;91890.41;;;2.74;100.00
10958;BME280;5531;42.570;23.676;2022-12-07T05:02:49;91897.97;;;2.67;100.00
10958;BME280;5531;42.570;23.676;2022-12-07T05:05:18;91887.25;;;2.62;100.00
10958;BME280;5531;42.570;23.676;2022-12-07T05:07:47;91891.13;;;2.58;100.00
10958;BME280;5531;42.570;23.676;2022-12-07T05:10:16;91878.38;;;2.65;100.00
10958;BME280;5531;42.570;23.676;2022-12-07T05:12:48;91881.16;;;2.71;100.00
10958;BME280;5531;42.570;23.676;2022-12-07T05:15:17;91877.06;;;2.61;100.00
10958;BME280;5531;42.570;23.676;2022-12-07T05:17:47;91881.44;;;2.60;100.00
10958;BME280;5531;42.570;23.676;2022-12-07T05:20:18;91878.69;;;2.62;100.00
10958;BME280;5531;42.570;23.676;2022-12-07T05:22:47;91878.84;;;2.60;100.00
10958;BME280;5531;42.570;23.676;2022-12-07T05:25:16;91880.94;;;2.56;100.00
10958;BME280;5531;42.570;23.676;2022-12-07T05:27:48;91880.78;;;2.58;100.00
10958;BME280;5531;42.570;23.676;2022-12-07T05:30:17;91881.69;;;2.49;100.00
10958;BME280;5531;42.570;23.676;2022-12-07T05:32:46;91875.41;;;2.51;100.00
10958;BME280;5531;42.570;23.676;2022-12-07T05:35:15;91874.94;;;2.56;100.00
10958;BME280;5531;42.570;23.676;2022-12-07T05:37:44;91877.16;;;2.51;100.00
10958;BME280;5531;42.570;23.676;2022-12-07T05:40:15;91883.31;;;2.50;100.00
10958;BME280;5531;42.570;23.676;2022-12-07T05:42:50;91887.81;;;2.48;100.00
10958;BME280;5531;42.570;23.676;2022-12-07T05:45:19;91882.47;;;2.49;100.00
10958;BME280;5531;42.570;23.676;2022-12-07T05:47:48;91892.81;;;2.49;100.00
10958;BME280;5531;42.570;23.676;2022-12-07T05:50:17;91887.97;;;2.46;100.00
10958;BME280;5531;42.570;23.676;2022-12-07T05:52:46;91879.03;;;2.41;100.00
10958;BME280;5531;42.570;23.676;2022-12-07T05:55:16;91868.41;;;2.44;100.00
10958;BME280;5531;42.570;23.676;2022-12-07T05:57:45;91883.91;;;2.44;100.00
10958;BME280;5531;42.570;23.676;2022-12-07T06:00:29;91874.31;;;2.36;100.00
10958;BME280;5531;42.570;23.676;2022-12-07T06:02:58;91877.44;;;2.22;100.00
10958;BME280;5531;42.570;23.676;2022-12-07T06:05:28;91878.06;;;2.15;100.00
10958;BME280;5531;42.570;23.676;2022-12-07T06:07:57;91879.66;;;2.16;100.00
10958;BME280;5531;42.570;23.676;2022-12-07T06:10:26;91881.50;;;2.24;100.00
10958;BME280;5531;42.570;23.676;2022-12-07T06:12:55;91876.84;;;2.28;100.00
10958;BME280;5531;42.570;23.676;2022-12-07T06:15:21;91880.72;;;2.24;100.00
10958;BME280;5531;42.570;23.676;2022-12-07T06:17:54;91873.69;;;2.16;100.00
10958;BME280;5531;42.570;23.676;2022-12-07T06:20:23;91874.41;;;2.26;100.00
10958;BME280;5531;42.570;23.676;2022-12-07T06:22:52;91874.63;;;2.33;100.00
10958;BME280;5531;42.570;23.676;2022-12-07T06:25:21;91886.00;;;2.40;100.00
10958;BME280;5531;42.570;23.676;2022-12-07T06:27:50;91884.94;;;2.33;100.00
10958;BME280;5531;42.570;23.676;2022-12-07T06:30:21;91884.94;;;2.33;100.00
10958;BME280;5531;42.570;23.676;2022-12-07T06:32:50;91884.81;;;2.34;100.00
10958;BME280;5531;42.570;23.676;2022-12-07T06:35:21;91878.69;;;2.35;100.00
10958;BME280;5531;42.570;23.676;2022-12-07T06:37:50;91881.13;;;2.37;100.00
10958;BME280;5531;42.570;23.676;2022-12-07T06:40:21;91884.66;;;2.36;100.00
10958;BME280;5531;42.570;23.676;2022-12-07T06:42:50;91882.44;;;2.41;100.00
10958;BME280;5531;42.570;23.676;2022-12-07T06:45:19;91894.91;;;2.46;100.00
10958;BME280;5531;42.570;23.676;2022-12-07T06:47:48;91901.41;;;2.50;100.00
10958;BME280;5531;42.570;23.676;2022-12-07T06:50:17;91902.22;;;2.50;100.00
10958;BME280;5531;42.570;23.676;2022-12-07T06:52:50;91897.50;;;2.46;100.00
10958;BME280;5531;42.570;23.676;2022-12-07T06:55:19;91896.97;;;2.42;100.00
10958;BME280;5531;42.570;23.676;2022-12-07T06:57:48;91895.50;;;2.39;100.00
10958;BME280;5531;42.570;23.676;2022-12-07T07:00:18;91893.91;;;2.38;100.00
10958;BME280;5531;42.570;23.676;2022-12-07T07:02:47;91895.19;;;2.43;100.00
10958;BME280;5531;42.570;23.676;2022-12-07T07:05:16;91888.13;;;2.45;100.00
10958;BME280;5531;42.570;23.676;2022-12-07T07:07:50;91894.66;;;2.57;100.00
10958;BME280;5531;42.570;23.676;2022-12-07T07:10:19;91885.78;;;2.60;100.00
10958;BME280;5531;42.570;23.676;2022-12-07T07:12:48;91887.09;;;2.64;100.00
10958;BME280;5531;42.570;23.676;2022-12-07T07:15:17;91887.25;;;2.62;100.00
10958;BME280;5531;42.570;23.676;2022-12-07T07:17:46;91878.09;;;2.68;100.00
10958;BME280;5531;42.570;23.676;2022-12-07T07:20:15;91880.38;;;2.71;100.00
10958;BME280;5531;42.570;23.676;2022-12-07T07:22:45;91888.94;;;2.71;100.00
10958;BME280;5531;42.570;23.676;2022-12-07T07:25:17;91884.56;;;2.72;100.00
10958;BME280;5531;42.570;23.676;2022-12-07T07:27:46;91887.28;;;2.70;100.00
10958;BME280;5531;42.570;23.676;2022-12-07T07:30:15;91878.94;;;2.77;100.00
10958;BME280;5531;42.570;23.676;2022-12-07T07:32:44;91879.97;;;2.84;100.00
10958;BME280;5531;42.570;23.676;2022-12-07T07:35:13;91889.78;;;2.80;100.00
10958;BME280;5531;42.570;23.676;2022-12-07T07:37:42;91887.88;;;2.82;100.00
10958;BME280;5531;42.570;23.676;2022-12-07T07:40:11;91889.31;;;2.85;100.00
10958;BME280;5531;42.570;23.676;2022-12-07T07:42:43;91884.50;;;2.90;100.00
10958;BME280;5531;42.570;23.676;2022-12-07T07:45:12;91888.41;;;2.94;100.00
10958;BME280;5531;42.570;23.676;2022-12-07T07:47:41;91891.84;;;3.03;100.00
10958;BME280;5531;42.570;23.676;2022-12-07T07:50:10;91890.09;;;3.03;100.00
10958;BME280;5531;42.570;23.676;2022-12-07T07:52:39;91888.28;;;3.04;100.00
10958;BME280;5531;42.570;23.676;2022-12-07T07:55:09;91903.75;;;3.22;100.00
10958;BME280;5531;42.570;23.676;2022-12-07T07:57:39;91895.19;;;3.29;100.00
10958;BME280;5531;42.570;23.676;2022-12-07T08:00:13;91894.41;;;3.37;100.00
10958;BME280;5531;42.570;23.676;2022-12-07T08:02:42;91911.75;;;3.45;100.00
10958;BME280;5531;42.570;23.676;2022-12-07T08:05:12;91904.63;;;3.47;100.00
10958;BME280;5531;42.570;23.676;2022-12-07T08:07:41;91902.75;;;3.57;100.00
10958;BME280;5531;42.570;23.676;2022-12-07T08:10:12;91903.25;;;3.69;100.00
10958;BME280;5531;42.570;23.676;2022-12-07T08:12:43;91910.41;;;3.83;100.00
10958;BME280;5531;42.570;23.676;2022-12-07T08:15:28;91903.78;;;3.97;100.00
10958;BME280;5531;42.570;23.676;2022-12-07T08:17:58;91903.97;;;4.12;100.00
10958;BME280;5531;42.570;23.676;2022-12-07T08:20:29;91899.63;;;4.29;100.00
10958;BME280;5531;42.570;23.676;2022-12-07T08:22:58;91904.31;;;4.42;100.00
10958;BME280;5531;42.570;23.676;2022-12-07T08:25:28;91906.75;;;4.52;100.00
10958;BME280;5531;42.570;23.676;2022-12-07T08:27:57;91913.22;;;4.64;100.00
10958;BME280;5531;42.570;23.676;2022-12-07T08:30:29;91913.53;;;4.77;100.00
10958;BME280;5531;42.570;23.676;2022-12-07T08:32:58;91911.91;;;4.85;100.00
10958;BME280;5531;42.570;23.676;2022-12-07T08:35:27;91910.94;;;4.86;100.00
10958;BME280;5531;42.570;23.676;2022-12-07T08:37:59;91908.16;;;4.95;100.00
10958;BME280;5531;42.570;23.676;2022-12-07T08:40:29;91899.53;;;4.95;100.00
10958;BME280;5531;42.570;23.676;2022-12-07T08:42:58;91902.44;;;5.00;100.00
10958;BME280;5531;42.570;23.676;2022-12-07T08:45:30;91891.91;;;5.02;100.00
10958;BME280;5531;42.570;23.676;2022-12-07T08:48:06;91893.66;;;5.09;100.00
10958;BME280;5531;42.570;23.676;2022-12-07T08:50:37;91896.59;;;5.06;100.00
10958;BME280;5531;42.570;23.676;2022-12-07T08:53:07;91901.00;;;5.06;100.00
10958;BME280;5531;42.570;23.676;2022-12-07T08:55:36;91900.63;;;5.17;100.00
10958;BME280;5531;42.570;23.676;2022-12-07T08:58:05;91903.41;;;5.16;100.00
10958;BME280;5531;42.570;23.676;2022-12-07T09:00:37;91896.19;;;5.34;100.00
10958;BME280;5531;42.570;23.676;2022-12-07T09:03:06;91893.44;;;5.27;100.00
10958;BME280;5531;42.570;23.676;2022-12-07T09:05:35;91884.31;;;5.40;100.00
10958;BME280;5531;42.570;23.676;2022-12-07T09:08:04;91880.72;;;5.41;100.00
10958;BME280;5531;42.570;23.676;2022-12-07T09:10:34;91878.84;;;5.35;100.00
10958;BME280;5531;42.570;23.676;2022-12-07T09:13:03;91877.66;;;5.37;100.00
10958;BME280;5531;42.570;23.676;2022-12-07T09:15:32;91879.69;;;5.58;100.00
10958;BME280;5531;42.570;23.676;2022-12-07T09:18:04;91876.38;;;5.73;100.00
10958;BME280;5531;42.570;23.676;2022-12-07T09:20:33;91876.97;;;5.83;100.00
10958;BME280;5531;42.570;23.676;2022-12-07T09:23:02;91877.88;;;5.98;100.00
10958;BME280;5531;42.570;23.676;2022-12-07T09:25:31;91886.94;;;6.02;100.00
10958;BME280;5531;42.570;23.676;2022-12-07T09:28:00;91883.88;;;6.22;100.00
10958;BME280;5531;42.570;23.676;2022-12-07T09:30:29;91881.50;;;6.35;100.00
10958;BME280;5531;42.570;23.676;2022-12-07T09:32:58;91874.84;;;6.56;100.00
10958;BME280;5531;42.570;23.676;2022-12-07T09:35:29;91873.16;;;6.63;100.00
10958;BME280;5531;42.570;23.676;2022-12-07T09:37:58;91867.44;;;6.83;100.00
10958;BME280;5531;42.570;23.676;2022-12-07T09:40:28;91864.31;;;7.02;100.00
10958;BME280;5531;42.570;23.676;2022-12-07T09:42:57;91859.66;;;7.12;100.00
10958;BME280;5531;42.570;23.676;2022-12-07T09:45:30;91853.44;;;7.28;100.00
10958;BME280;5531;42.570;23.676;2022-12-07T09:48:00;91848.97;;;7.37;100.00
10958;BME280;5531;42.570;23.676;2022-12-07T09:50:33;91854.84;;;7.61;100.00
10958;BME280;5531;42.570;23.676;2022-12-07T09:53:09;91851.16;;;7.70;100.00
10958;BME280;5531;42.570;23.676;2022-12-07T09:55:39;91840.28;;;7.66;100.00
10958;BME280;5531;42.570;23.676;2022-12-07T09:58:12;91838.63;;;7.80;100.00
10958;BME280;5531;42.570;23.676;2022-12-07T10:00:46;91838.69;;;7.87;100.00
10958;BME280;5531;42.570;23.676;2022-12-07T10:03:15;91842.25;;;7.79;100.00
10958;BME280;5531;42.570;23.676;2022-12-07T10:05:50;91838.63;;;7.80;100.00
10958;BME280;5531;42.570;23.676;2022-12-07T10:08:20;91844.31;;;7.69;100.00
10958;BME280;5531;42.570;23.676;2022-12-07T10:10:52;91836.59;;;7.61;100.00
10958;BME280;5531;42.570;23.676;2022-12-07T10:13:23;91835.06;;;7.66;100.00
10958;BME280;5531;42.570;23.676;2022-12-07T10:16:02;91834.41;;;7.79;100.00
10958;BME280;5531;42.570;23.676;2022-12-07T10:18:33;91835.53;;;7.92;100.00
10958;BME280;5531;42.570;23.676;2022-12-07T10:21:12;91824.91;;;7.93;99.60
10958;BME280;5531;42.570;23.676;2022-12-07T10:23:58;91829.16;;;7.94;100.00
10958;BME280;5531;42.570;23.676;2022-12-07T10:26:32;91821.38;;;8.01;99.31
10958;BME280;5531;42.570;23.676;2022-12-07T10:29:04;91825.50;;;8.10;99.61
10958;BME280;5531;42.570;23.676;2022-12-07T10:31:44;91826.38;;;8.17;98.69
10958;BME280;5531;42.570;23.676;2022-12-07T10:34:22;91823.13;;;8.37;98.92
10958;BME280;5531;42.570;23.676;2022-12-07T10:37:14;91817.78;;;8.45;98.22
10958;BME280;5531;42.570;23.676;2022-12-07T10:39:45;91823.03;;;8.45;96.88
10958;BME280;5531;42.570;23.676;2022-12-07T10:42:19;91809.25;;;8.58;97.41
10958;BME280;5531;42.570;23.676;2022-12-07T10:44:50;91806.66;;;8.58;96.16
10958;BME280;5531;42.570;23.676;2022-12-07T10:47:31;91805.84;;;8.57;95.59
10958;BME280;5531;42.570;23.676;2022-12-07T10:50:27;91797.25;;;8.63;94.56
10958;BME280;5531;42.570;23.676;2022-12-07T10:53:25;91797.06;;;8.93;95.14
10958;BME280;5531;42.570;23.676;2022-12-07T10:56:09;91785.47;;;9.09;94.76
10958;BME280;5531;42.570;23.676;2022-12-07T10:58:53;91785.34;;;9.24;93.80
10958;BME280;5531;42.570;23.676;2022-12-07T11:01:29;91792.00;;;9.27;91.54
10958;BME280;5531;42.570;23.676;2022-12-07T11:04:19;91793.06;;;9.39;93.09
10958;BME280;5531;42.570;23.676;2022-12-07T11:06:57;91790.69;;;9.51;93.24
10958;BME280;5531;42.570;23.676;2022-12-07T11:09:44;91790.63;;;9.38;90.62
10958;BME280;5531;42.570;23.676;2022-12-07T11:12:21;91788.88;;;9.03;90.16
10958;BME280;5531;42.570;23.676;2022-12-07T11:14:57;91780.13;;;8.89;92.09
10958;BME280;5531;42.570;23.676;2022-12-07T11:17:36;91788.13;;;8.81;91.29
10958;BME280;5531;42.570;23.676;2022-12-07T11:20:24;91788.34;;;8.86;93.10
10958;BME280;5531;42.570;23.676;2022-12-07T11:23:02;91780.13;;;8.89;93.88
10958;BME280;5531;42.570;23.676;2022-12-07T11:25:41;91770.97;;;8.72;94.41
10958;BME280;5531;42.570;23.676;2022-12-07T11:28:26;91770.00;;;8.73;94.74
10958;BME280;5531;42.570;23.676;2022-12-07T11:31:05;91766.44;;;8.52;95.21
10958;BME280;5531;42.570;23.676;2022-12-07T11:33:41;91769.75;;;8.39;95.12
10958;BME280;5531;42.570;23.676;2022-12-07T11:36:30;91768.13;;;8.38;95.81
10958;BME280;5531;42.570;23.676;2022-12-07T11:39:02;91765.28;;;8.33;96.58
10958;BME280;5531;42.570;23.676;2022-12-07T11:41:39;91759.03;;;8.56;98.30
10958;BME280;5531;42.570;23.676;2022-12-07T11:44:27;91762.28;;;8.58;94.62
10958;BME280;5531;42.570;23.676;2022-12-07T11:47:04;91752.81;;;8.57;95.28
10958;BME280;5531;42.570;23.676;2022-12-07T11:49:41;91757.47;;;8.61;95.49
10958;BME280;5531;42.570;23.676;2022-12-07T11:52:20;91748.84;;;8.61;95.53
10958;BME280;5531;42.570;23.676;2022-12-07T11:54:52;91737.19;;;8.63;94.79
10958;BME280;5531;42.570;23.676;2022-12-07T11:57:32;91739.41;;;8.67;94.73
10958;BME280;5531;42.570;23.676;2022-12-07T12:00:05;91736.66;;;8.75;94.62
10958;BME280;5531;42.570;23.676;2022-12-07T12:02:46;91738.16;;;8.91;94.91
10958;BME280;5531;42.570;23.676;2022-12-07T12:05:19;91729.50;;;8.90;93.60
10958;BME280;5531;42.570;23.676;2022-12-07T12:07:54;91725.84;;;8.85;93.82
10958;BME280;5531;42.570;23.676;2022-12-07T12:10:33;91723.25;;;8.85;93.79
10958;BME280;5531;42.570;23.676;2022-12-07T12:13:27;91723.94;;;9.00;93.94
10958;BME280;5531;42.570;23.676;2022-12-07T12:16:12;91729.78;;;9.09;92.81
10958;BME280;5531;42.570;23.676;2022-12-07T12:19:10;91723.81;;;9.22;91.63
10958;BME280;5531;42.570;23.676;2022-12-07T12:21:43;91716.03;;;9.42;91.83
10958;BME280;5531;42.570;23.676;2022-12-07T12:24:18;91714.69;;;9.72;93.32
10958;BME280;5531;42.570;23.676;2022-12-07T12:26:50;91715.75;;;9.98;90.83
10958;BME280;5531;42.570;23.676;2022-12-07T12:29:28;91714.75;;;10.06;88.73
10958;BME280;5531;42.570;23.676;2022-12-07T12:32:10;91714.16;;;10.11;89.09
10958;BME280;5531;42.570;23.676;2022-12-07T12:34:58;91717.75;;;10.09;88.56
10958;BME280;5531;42.570;23.676;2022-12-07T12:37:44;91715.75;;;10.18;87.61
10958;BME280;5531;42.570;23.676;2022-12-07T12:40:38;91710.72;;;10.23;88.71
10958;BME280;5531;42.570;23.676;2022-12-07T12:49:37;91706.31;;;10.37;87.53
10958;BME280;5531;42.570;23.676;2022-12-07T12:58:40;91702.50;;;10.40;85.43
10958;BME280;5531;42.570;23.676;2022-12-07T13:04:51;91702.47;;;10.60;84.98
10958;BME280;5531;42.570;23.676;2022-12-07T13:10:37;91698.00;;;10.00;85.42
10958;BME280;5531;42.570;23.676;2022-12-07T13:22:46;91699.84;;;9.80;88.48
10958;BME280;5531;42.570;23.676;2022-12-07T13:25:36;91698.00;;;9.60;87.38
10958;BME280;5531;42.570;23.676;2022-12-07T13:28:15;91694.09;;;9.29;89.66
10958;BME280;5531;42.570;23.676;2022-12-07T13:30:58;91701.09;;;9.29;89.81
10958;BME280;5531;42.570;23.676;2022-12-07T13:33:29;91703.66;;;9.09;90.14
10958;BME280;5531;42.570;23.676;2022-12-07T13:35:58;91703.28;;;9.12;91.14
10958;BME280;5531;42.570;23.676;2022-12-07T13:38:33;91701.66;;;9.11;91.16
10958;BME280;5531;42.570;23.676;2022-12-07T13:41:10;91712.94;;;9.11;91.02
10958;BME280;5531;42.570;23.676;2022-12-07T13:43:49;91706.69;;;9.19;91.05
10958;BME280;5531;42.570;23.676;2022-12-07T13:46:25;91706.03;;;9.52;90.69
10958;BME280;5531;42.570;23.676;2022-12-07T13:48:55;91704.81;;;9.68;88.66
10958;BME280;5531;42.570;23.676;2022-12-07T13:51:26;91705.53;;;9.28;89.06
10958;BME280;5531;42.570;23.676;2022-12-07T13:54:00;91704.31;;;9.17;90.48
10958;BME280;5531;42.570;23.676;2022-12-07T13:56:34;91701.03;;;9.09;90.75
10958;BME280;5531;42.570;23.676;2022-12-07T13:59:07;91704.69;;;9.08;90.89
10958;BME280;5531;42.570;23.676;2022-12-07T14:01:41;91702.78;;;8.88;90.46
10958;BME280;5531;42.570;23.676;2022-12-07T14:04:18;91703.84;;;8.59;91.93